createdAt,value
2022-10-01T00:01:13.391Z,10.01
2022-10-01T00:03:40.448Z,10.01
2022-10-01T00:06:11.452Z,10.02
2022-10-01T00:08:40.428Z,9.98
2022-10-01T00:11:12.474Z,10.04
2022-10-01T00:13:39.899Z,10.03
2022-10-01T00:16:09.489Z,9.99
2022-10-01T00:18:38.081Z,9.98
2022-10-01T00:21:12.230Z,9.94
2022-10-01T00:23:39.306Z,10.03
2022-10-01T00:26:23.330Z,10.05
2022-10-01T00:28:57.981Z,10.02
2022-10-01T00:31:25.314Z,10.03
2022-10-01T00:33:55.905Z,9.98
2022-10-01T00:36:22.673Z,10.04
2022-10-01T00:38:49.245Z,9.99
2022-10-01T00:41:16.738Z,10.02
2022-10-01T00:43:48.306Z,9.92
2022-10-01T00:46:33.101Z,10.04
2022-10-01T00:49:11.333Z,10.02
2022-10-01T00:51:41.455Z,10.04
2022-10-01T00:54:19.408Z,10.05
2022-10-01T00:56:46.891Z,10.03
2022-10-01T00:59:16.422Z,10.04
2022-10-01T01:01:42.975Z,10.06
2022-10-01T01:04:17.099Z,10.08
2022-10-01T01:06:53.748Z,10.10
2022-10-01T01:09:21.327Z,10.02
2022-10-01T01:11:51.076Z,10.08
2022-10-01T01:14:41.775Z,10.14
2022-10-01T01:17:40.605Z,10.08
2022-10-01T01:20:51.765Z,10.07
2022-10-01T01:23:18.422Z,10.10
2022-10-01T01:25:49.132Z,10.08
2022-10-01T01:28:31.686Z,10.07
2022-10-01T01:31:13.617Z,10.06
2022-10-01T01:33:44.331Z,10.14
2022-10-01T01:36:16.411Z,10.08
2022-10-01T01:38:54.840Z,10.07
2022-10-01T01:41:24.498Z,10.10
2022-10-01T01:43:56.497Z,10.16
2022-10-01T01:46:31.638Z,10.07
2022-10-01T01:49:01.063Z,10.09
2022-10-01T01:51:34.118Z,10.10
2022-10-01T01:54:01.126Z,10.08
2022-10-01T01:56:28.173Z,10.10
2022-10-01T01:58:54.851Z,10.08
2022-10-01T02:01:42.120Z,10.14
2022-10-01T02:04:28.555Z,10.16
2022-10-01T02:07:16.128Z,10.18
2022-10-01T02:09:51.260Z,10.18
2022-10-01T02:12:50.366Z,10.17
2022-10-01T02:15:23.002Z,10.19
2022-10-01T02:18:11.622Z,10.21
2022-10-01T02:20:57.296Z,10.21
2022-10-01T02:23:30.656Z,10.19
2022-10-01T02:26:02.507Z,10.24
2022-10-01T02:28:32.846Z,10.23
2022-10-01T02:31:01.892Z,10.26
2022-10-01T02:33:33.219Z,10.30
2022-10-01T02:36:02.364Z,10.27
2022-10-01T02:38:31.129Z,10.33
2022-10-01T02:41:02.486Z,10.32
2022-10-01T02:43:34.033Z,10.37
2022-10-01T02:46:06.972Z,10.43
2022-10-01T02:48:34.276Z,10.40
2022-10-01T02:51:22.232Z,10.38
2022-10-01T02:53:55.174Z,10.40
2022-10-01T02:56:48.666Z,10.45
2022-10-01T02:59:15.652Z,10.53
2022-10-01T03:01:42.292Z,10.53
2022-10-01T03:04:08.829Z,10.50
2022-10-01T03:06:35.847Z,10.53
2022-10-01T03:09:02.512Z,10.59
2022-10-01T03:11:29.060Z,10.52
2022-10-01T03:13:55.653Z,10.58
2022-10-01T03:16:22.242Z,10.59
2022-10-01T03:18:48.817Z,10.68
2022-10-01T03:21:15.348Z,10.70
2022-10-01T03:23:41.800Z,10.73
2022-10-01T03:26:08.326Z,10.65
2022-10-01T03:28:34.883Z,10.61
2022-10-01T03:31:09.661Z,10.70
2022-10-01T03:33:36.416Z,10.73
2022-10-01T03:36:04.340Z,10.73
2022-10-01T03:38:31.757Z,10.75
2022-10-01T03:40:58.304Z,10.82
2022-10-01T03:43:27.025Z,10.82
2022-10-01T03:45:53.632Z,10.87
2022-10-01T03:48:21.120Z,10.82
2022-10-01T03:50:55.556Z,10.87
2022-10-01T03:53:22.730Z,10.89
2022-10-01T03:55:50.125Z,10.91
2022-10-01T03:58:18.905Z,10.84
2022-10-01T04:00:47.431Z,10.96
2022-10-01T04:03:15.258Z,10.93
2022-10-01T04:05:43.491Z,10.94
2022-10-01T04:08:10.875Z,11.07
2022-10-01T04:10:37.888Z,11.09
2022-10-01T04:13:05.329Z,11.05
2022-10-01T04:15:35.738Z,11.09
2022-10-01T04:18:05.493Z,11.11
2022-10-01T04:20:33.762Z,11.19
2022-10-01T04:23:00.956Z,11.14
2022-10-01T04:25:28.271Z,11.25
2022-10-01T04:27:59.503Z,11.23
2022-10-01T04:30:28.506Z,11.25
2022-10-01T04:32:55.066Z,11.27
2022-10-01T04:35:22.255Z,11.32
2022-10-01T04:38:01.554Z,11.29
2022-10-01T04:40:28.038Z,11.29
2022-10-01T04:42:54.517Z,11.27
2022-10-01T04:45:21.369Z,11.31
2022-10-01T04:47:49.684Z,11.30
2022-10-01T04:50:17.998Z,11.33
2022-10-01T04:52:45.059Z,11.30
2022-10-01T04:55:12.484Z,11.27
2022-10-01T04:57:39.216Z,11.28
2022-10-01T05:00:08.191Z,11.25
2022-10-01T05:02:34.954Z,11.20
2022-10-01T05:05:03.909Z,11.22
2022-10-01T05:07:31.632Z,11.20
2022-10-01T05:09:58.892Z,11.17
2022-10-01T05:12:25.915Z,11.21
2022-10-01T05:14:53.311Z,11.21
2022-10-01T05:17:20.160Z,11.15
2022-10-01T05:19:47.397Z,11.20
2022-10-01T05:22:14.384Z,11.15
2022-10-01T05:24:41.761Z,11.19
2022-10-01T05:27:13.417Z,11.15
2022-10-01T05:29:41.551Z,11.17
2022-10-01T05:32:10.065Z,11.14
2022-10-01T05:34:36.724Z,11.09
2022-10-01T05:37:03.439Z,11.07
2022-10-01T05:39:31.244Z,11.12
2022-10-01T05:41:59.139Z,11.01
2022-10-01T05:44:27.141Z,11.07
2022-10-01T05:46:54.084Z,11.01
2022-10-01T05:49:20.665Z,10.98
2022-10-01T05:51:47.223Z,10.96
2022-10-01T05:54:13.904Z,10.91
2022-10-01T05:56:40.377Z,10.94
2022-10-01T05:59:07.029Z,10.87
2022-10-01T06:01:33.759Z,10.93
2022-10-01T06:04:00.702Z,10.88
2022-10-01T06:06:27.732Z,10.90
2022-10-01T06:08:54.861Z,10.91
2022-10-01T06:11:24.955Z,10.91
2022-10-01T06:13:51.471Z,10.97
2022-10-01T06:16:18.245Z,11.04
2022-10-01T06:18:47.061Z,11.11
2022-10-01T06:21:13.531Z,11.08
2022-10-01T06:23:40.093Z,11.04
2022-10-01T06:26:06.770Z,11.07
2022-10-01T06:28:33.380Z,11.06
2022-10-01T06:31:03.971Z,11.07
2022-10-01T06:33:30.533Z,11.15
2022-10-01T06:35:57.007Z,11.16
2022-10-01T06:38:25.438Z,11.27
2022-10-01T06:40:59.622Z,11.38
2022-10-01T06:43:28.297Z,11.47
2022-10-01T06:45:56.333Z,11.55
2022-10-01T06:48:23.185Z,11.62
2022-10-01T06:50:52.114Z,11.68
2022-10-01T06:53:18.940Z,11.78
2022-10-01T06:55:46.152Z,11.88
2022-10-01T06:58:20.999Z,11.95
2022-10-01T07:00:49.080Z,12.07
2022-10-01T07:03:20.068Z,12.14
2022-10-01T07:05:47.286Z,12.34
2022-10-01T07:08:14.604Z,12.56
2022-10-01T07:10:42.160Z,12.73
2022-10-01T07:13:20.284Z,12.70
2022-10-01T07:15:47.163Z,12.84
2022-10-01T07:18:14.229Z,12.95
2022-10-01T07:20:41.202Z,12.84
2022-10-01T07:23:12.264Z,13.00
2022-10-01T07:25:41.352Z,13.02
2022-10-01T07:28:16.447Z,12.94
2022-10-01T07:30:48.215Z,12.91
2022-10-01T07:33:18.630Z,12.71
2022-10-01T07:35:47.748Z,12.60
2022-10-01T07:38:14.209Z,12.59
2022-10-01T07:40:41.225Z,12.70
2022-10-01T07:43:09.016Z,12.84
2022-10-01T07:45:35.574Z,13.03
2022-10-01T07:48:03.331Z,13.05
2022-10-01T07:50:33.223Z,13.22
2022-10-01T07:53:00.265Z,13.34
2022-10-01T07:55:30.567Z,13.43
2022-10-01T07:58:01.462Z,13.59
2022-10-01T08:00:30.463Z,13.66
2022-10-01T08:02:57.331Z,13.79
2022-10-01T08:05:29.631Z,13.81
2022-10-01T08:08:04.787Z,13.90
2022-10-01T08:10:33.724Z,14.01
2022-10-01T08:13:14.731Z,13.95
2022-10-01T08:15:47.430Z,13.90
2022-10-01T08:18:14.483Z,13.89
2022-10-01T08:20:41.532Z,13.65
2022-10-01T08:23:10.551Z,13.57
2022-10-01T08:25:37.911Z,13.48
2022-10-01T08:28:05.223Z,13.61
2022-10-01T08:30:32.492Z,13.95
2022-10-01T08:33:00.779Z,14.21
2022-10-01T08:35:28.609Z,14.21
2022-10-01T08:37:56.630Z,14.30
2022-10-01T08:40:24.237Z,14.30
2022-10-01T08:42:53.443Z,14.13
2022-10-01T08:45:34.758Z,14.22
2022-10-01T08:48:23.223Z,14.39
2022-10-01T08:50:57.942Z,14.51
2022-10-01T08:53:49.643Z,14.66
2022-10-01T08:56:24.814Z,14.87
2022-10-01T08:58:58.187Z,14.75
2022-10-01T09:01:26.352Z,14.88
2022-10-01T09:03:53.862Z,14.98
2022-10-01T09:06:25.543Z,15.10
2022-10-01T09:09:32.355Z,15.39
2022-10-01T09:12:20.927Z,15.54
2022-10-01T09:15:03.744Z,15.39
2022-10-01T09:17:44.364Z,15.28
2022-10-01T09:20:25.933Z,15.41
2022-10-01T09:23:03.492Z,15.39
2022-10-01T09:25:32.164Z,15.26
2022-10-01T09:28:07.425Z,15.05
2022-10-01T09:30:36.496Z,15.04
2022-10-01T09:33:11.792Z,14.70
2022-10-01T09:35:49.749Z,14.47
2022-10-01T09:38:23.396Z,14.15
2022-10-01T09:40:54.964Z,14.37
2022-10-01T09:43:23.493Z,14.57
2022-10-01T09:45:51.848Z,14.77
2022-10-01T09:49:00.905Z,14.76
2022-10-01T09:51:42.842Z,15.04
2022-10-01T09:54:32.498Z,15.17
2022-10-01T09:57:09.414Z,15.44
2022-10-01T09:59:53.155Z,15.41
2022-10-01T10:02:27.709Z,15.31
2022-10-01T10:05:01.810Z,15.16
2022-10-01T10:07:32.000Z,14.81
2022-10-01T10:10:16.191Z,14.39
2022-10-01T10:12:44.094Z,14.25
2022-10-01T10:15:18.164Z,14.67
2022-10-01T10:17:51.328Z,15.04
2022-10-01T10:20:24.654Z,15.28
2022-10-01T10:22:51.846Z,15.32
2022-10-01T10:25:25.074Z,15.44
2022-10-01T10:27:55.379Z,15.31
2022-10-01T10:30:24.876Z,15.00
2022-10-01T10:33:02.138Z,14.87
2022-10-01T10:35:29.082Z,14.67
2022-10-01T10:37:57.323Z,14.80
2022-10-01T10:40:29.708Z,14.66
2022-10-01T10:42:58.624Z,14.80
2022-10-01T10:45:38.685Z,15.00
2022-10-01T10:48:11.589Z,15.04
2022-10-01T10:50:41.067Z,15.31
2022-10-01T10:53:24.387Z,15.48
2022-10-01T10:56:02.475Z,15.39
2022-10-01T10:58:31.771Z,15.62
2022-10-01T11:01:13.580Z,15.94
2022-10-01T11:03:48.472Z,16.08
2022-10-01T11:06:18.649Z,16.18
2022-10-01T11:08:57.088Z,16.24
2022-10-01T11:11:42.276Z,16.33
2022-10-01T11:14:43.388Z,15.72
2022-10-01T11:17:50.596Z,15.26
2022-10-01T11:20:43.929Z,15.13
2022-10-01T11:23:36.748Z,15.05
2022-10-01T11:26:30.806Z,15.09
2022-10-01T11:29:21.178Z,14.92
2022-10-01T11:32:02.840Z,15.15
2022-10-01T11:34:41.994Z,15.25
2022-10-01T11:37:10.648Z,15.56
2022-10-01T11:39:39.921Z,15.92
2022-10-01T11:42:22.211Z,16.14
2022-10-01T11:45:02.261Z,16.09
2022-10-01T11:47:37.876Z,16.48
2022-10-01T11:50:36.151Z,16.60
2022-10-01T11:53:17.055Z,16.53
2022-10-01T11:56:26.316Z,16.39
2022-10-01T11:59:21.634Z,16.69
2022-10-01T12:02:09.078Z,16.17
2022-10-01T12:04:45.871Z,15.74
2022-10-01T12:07:20.319Z,15.48
2022-10-01T12:10:11.849Z,15.44
2022-10-01T12:13:16.664Z,15.15
2022-10-01T12:15:49.350Z,15.17
2022-10-01T12:18:40.968Z,15.07
2022-10-01T12:21:14.164Z,14.95
2022-10-01T12:23:50.159Z,15.19
2022-10-01T12:26:32.364Z,15.61
2022-10-01T12:29:11.173Z,16.07
2022-10-01T12:32:05.715Z,16.17
2022-10-01T12:34:53.966Z,16.42
2022-10-01T12:37:29.747Z,16.15
2022-10-01T12:40:05.377Z,15.86
2022-10-01T12:42:47.481Z,15.54
2022-10-01T12:45:39.819Z,15.50
2022-10-01T12:48:25.758Z,15.29
2022-10-01T12:51:05.676Z,15.46
2022-10-01T12:53:35.985Z,15.39
2022-10-01T12:56:06.294Z,15.39
2022-10-01T12:59:00.180Z,15.21
2022-10-01T13:01:26.668Z,15.44
2022-10-01T13:04:05.498Z,15.63
2022-10-01T13:06:55.602Z,15.71
2022-10-01T13:09:30.533Z,15.48
2022-10-01T13:12:03.232Z,15.40
2022-10-01T13:14:33.161Z,15.11
2022-10-01T13:17:10.127Z,15.03
2022-10-01T13:19:53.303Z,15.04
2022-10-01T13:22:45.416Z,15.10
2022-10-01T13:25:29.237Z,14.93
2022-10-01T13:28:10.709Z,15.07
2022-10-01T13:31:10.087Z,15.21
2022-10-01T13:33:37.508Z,15.39
2022-10-01T13:36:06.146Z,15.57
2022-10-01T13:38:38.782Z,15.71
2022-10-01T13:41:15.541Z,15.59
2022-10-01T13:43:56.215Z,15.41
2022-10-01T13:46:24.924Z,15.62
2022-10-01T13:48:52.408Z,15.62
2022-10-01T13:51:20.280Z,15.81
2022-10-01T13:54:00.544Z,15.94
2022-10-01T13:56:35.184Z,15.77
2022-10-01T13:59:03.079Z,15.94
2022-10-01T14:01:41.134Z,16.03
2022-10-01T14:04:19.989Z,15.85
2022-10-01T14:07:00.718Z,15.58
2022-10-01T14:09:36.175Z,15.55
2022-10-01T14:12:26.612Z,15.40
2022-10-01T14:15:15.478Z,15.11
2022-10-01T14:17:44.660Z,15.00
2022-10-01T14:20:32.641Z,14.92
2022-10-01T14:22:59.079Z,15.00
2022-10-01T14:25:28.618Z,14.81
2022-10-01T14:28:04.120Z,14.84
2022-10-01T14:30:57.150Z,14.95
2022-10-01T14:33:48.821Z,14.98
2022-10-01T14:36:18.326Z,15.13
2022-10-01T14:38:44.996Z,15.38
2022-10-01T14:41:23.979Z,15.45
2022-10-01T14:43:50.531Z,15.54
2022-10-01T14:46:18.519Z,15.47
2022-10-01T14:48:56.139Z,15.44
2022-10-01T14:51:29.100Z,15.24
2022-10-01T14:53:59.786Z,15.20
2022-10-01T14:56:28.142Z,15.40
2022-10-01T14:59:01.821Z,15.51
2022-10-01T15:01:29.358Z,15.68
2022-10-01T15:03:56.073Z,15.82
2022-10-01T15:06:26.172Z,15.90
2022-10-01T15:08:54.917Z,15.68
2022-10-01T15:11:24.620Z,15.56
2022-10-01T15:13:53.283Z,15.43
2022-10-01T15:16:28.399Z,15.39
2022-10-01T15:18:58.140Z,15.24
2022-10-01T15:21:53.630Z,15.22
2022-10-01T15:24:33.703Z,15.11
2022-10-01T15:27:00.920Z,14.98
2022-10-01T15:29:28.015Z,15.00
2022-10-01T15:31:57.213Z,14.95
2022-10-01T15:34:26.119Z,14.70
2022-10-01T15:36:53.964Z,14.62
2022-10-01T15:39:33.260Z,14.66
2022-10-01T15:42:05.955Z,14.76
2022-10-01T15:44:38.207Z,14.64
2022-10-01T15:47:25.221Z,14.46
2022-10-01T15:50:10.119Z,14.35
2022-10-01T15:52:55.522Z,14.27
2022-10-01T15:55:21.957Z,14.26
2022-10-01T15:57:53.903Z,14.08
2022-10-01T16:00:23.167Z,14.06
2022-10-01T16:02:51.065Z,14.02
2022-10-01T16:05:21.633Z,13.97
2022-10-01T16:07:56.161Z,13.84
2022-10-01T16:10:32.688Z,13.72
2022-10-01T16:12:59.757Z,13.67
2022-10-01T16:15:30.948Z,13.62
2022-10-01T16:18:04.973Z,13.64
2022-10-01T16:20:39.603Z,13.56
2022-10-01T16:23:40.055Z,13.52
2022-10-01T16:26:28.314Z,13.46
2022-10-01T16:28:57.113Z,13.46
2022-10-01T16:31:26.512Z,13.35
2022-10-01T16:33:53.217Z,13.31
2022-10-01T16:36:20.756Z,13.26
2022-10-01T16:38:51.345Z,13.20
2022-10-01T16:41:27.321Z,13.32
2022-10-01T16:43:57.526Z,13.45
2022-10-01T16:46:24.570Z,13.44
2022-10-01T16:48:51.713Z,13.37
2022-10-01T16:51:19.494Z,13.24
2022-10-01T16:53:47.078Z,13.15
2022-10-01T16:56:14.213Z,13.22
2022-10-01T16:58:41.780Z,13.17
2022-10-01T17:01:09.395Z,13.13
2022-10-01T17:03:36.359Z,13.05
2022-10-01T17:06:03.575Z,13.02
2022-10-01T17:08:30.387Z,13.06
2022-10-01T17:11:00.235Z,13.08
2022-10-01T17:13:28.628Z,12.99
2022-10-01T17:15:55.487Z,12.98
2022-10-01T17:18:22.530Z,12.92
2022-10-01T17:20:49.150Z,12.86
2022-10-01T17:23:19.237Z,12.98
2022-10-01T17:25:47.202Z,13.11
2022-10-01T17:28:17.093Z,13.18
2022-10-01T17:30:46.548Z,13.11
2022-10-01T17:33:14.470Z,13.04
2022-10-01T17:35:43.409Z,12.93
2022-10-01T17:38:11.510Z,12.82
2022-10-01T17:40:42.393Z,12.75
2022-10-01T17:43:13.532Z,12.59
2022-10-01T17:45:40.693Z,12.54
2022-10-01T17:48:07.763Z,12.48
2022-10-01T17:50:34.558Z,12.38
2022-10-01T17:53:01.603Z,12.39
2022-10-01T17:55:28.379Z,12.36
2022-10-01T17:57:54.885Z,12.33
2022-10-01T18:00:21.613Z,12.32
2022-10-01T18:02:48.124Z,12.25
2022-10-01T18:05:15.167Z,12.14
2022-10-01T18:07:42.521Z,12.08
2022-10-01T18:10:11.958Z,12.02
2022-10-01T18:12:39.211Z,12.04
2022-10-01T18:15:06.308Z,12.08
2022-10-01T18:17:33.509Z,12.06
2022-10-01T18:20:00.252Z,12.11
2022-10-01T18:22:28.210Z,11.99
2022-10-01T18:24:55.247Z,11.96
2022-10-01T18:27:21.763Z,11.86
2022-10-01T18:29:48.396Z,11.76
2022-10-01T18:32:23.084Z,11.70
2022-10-01T18:35:00.870Z,11.51
2022-10-01T18:37:45.713Z,11.47
2022-10-01T18:40:16.292Z,11.36
2022-10-01T18:42:57.855Z,11.30
2022-10-01T18:45:33.342Z,11.26
2022-10-01T18:48:21.134Z,11.29
2022-10-01T18:51:12.653Z,11.27
2022-10-01T18:53:55.373Z,11.15
2022-10-01T18:56:36.882Z,11.14
2022-10-01T18:59:12.780Z,11.16
2022-10-01T19:02:04.604Z,11.10
2022-10-01T19:04:32.297Z,11.05
2022-10-01T19:07:17.546Z,10.99
2022-10-01T19:09:58.761Z,10.90
2022-10-01T19:12:42.211Z,10.89
2022-10-01T19:15:27.487Z,10.86
2022-10-01T19:18:18.672Z,10.77
2022-10-01T19:20:58.070Z,10.76
2022-10-01T19:24:15.999Z,10.75
2022-10-01T19:27:21.324Z,10.70
2022-10-01T19:30:01.406Z,10.73
2022-10-01T19:32:39.555Z,10.70
2022-10-01T19:35:19.142Z,10.69
2022-10-01T19:38:11.134Z,10.69
2022-10-01T19:40:49.193Z,10.64
2022-10-01T19:43:47.954Z,10.62
2022-10-01T19:46:26.654Z,10.57
2022-10-01T19:49:00.555Z,10.56
2022-10-01T19:51:37.268Z,10.52
2022-10-01T19:54:03.828Z,10.53
2022-10-01T19:56:33.525Z,10.47
2022-10-01T19:59:20.119Z,10.48
2022-10-01T20:01:55.278Z,10.53
2022-10-01T20:04:28.380Z,10.55
2022-10-01T20:07:03.523Z,10.63
2022-10-01T20:09:45.175Z,10.59
2022-10-01T20:12:11.607Z,10.67
2022-10-01T20:15:09.234Z,10.70
2022-10-01T20:18:13.261Z,10.67
2022-10-01T20:21:05.871Z,10.65
2022-10-01T20:23:57.698Z,10.65
2022-10-01T20:26:41.607Z,10.71
2022-10-01T20:29:32.238Z,10.72
2022-10-01T20:32:29.845Z,10.71
2022-10-01T20:35:18.775Z,10.74
2022-10-01T20:37:54.325Z,10.76
2022-10-01T20:40:26.572Z,10.74
2022-10-01T20:43:18.049Z,10.87
2022-10-01T20:45:47.352Z,10.81
2022-10-01T20:48:19.342Z,10.74
2022-10-01T20:50:51.021Z,10.69
2022-10-01T20:53:31.103Z,10.66
2022-10-01T20:56:15.846Z,10.57
2022-10-01T20:58:54.530Z,10.63
2022-10-01T21:01:24.445Z,10.69
2022-10-01T21:04:01.623Z,10.61
2022-10-01T21:06:38.700Z,10.69
2022-10-01T21:09:38.734Z,10.64
2022-10-01T21:12:17.855Z,10.66
2022-10-01T21:14:50.525Z,10.64
2022-10-01T21:17:35.776Z,10.64
2022-10-01T21:20:14.565Z,10.54
2022-10-01T21:22:47.067Z,10.58
2022-10-01T21:25:19.515Z,10.54
2022-10-01T21:27:58.233Z,10.49
2022-10-01T21:30:24.955Z,10.50
2022-10-01T21:32:57.758Z,10.57
2022-10-01T21:35:52.822Z,10.65
2022-10-01T21:38:28.413Z,10.59
2022-10-01T21:41:32.997Z,10.52
2022-10-01T21:44:34.902Z,10.45
2022-10-01T21:47:22.653Z,10.44
2022-10-01T21:50:26.296Z,10.41
2022-10-01T21:53:18.305Z,10.42
2022-10-01T21:56:03.639Z,10.44
2022-10-01T21:58:58.066Z,10.49
2022-10-01T22:01:56.747Z,10.47
2022-10-01T22:04:30.117Z,10.45
2022-10-01T22:07:04.256Z,10.36
2022-10-01T22:09:43.126Z,10.49
2022-10-01T22:12:10.972Z,10.62
2022-10-01T22:14:38.793Z,10.71
2022-10-01T22:17:12.525Z,10.78
2022-10-01T22:19:42.900Z,10.90
2022-10-01T22:22:14.797Z,11.02
2022-10-01T22:24:48.543Z,11.26
2022-10-01T22:27:24.711Z,11.54
2022-10-01T22:30:12.605Z,11.68
2022-10-01T22:32:45.155Z,11.69
2022-10-01T22:35:20.004Z,11.58
2022-10-01T22:38:00.141Z,11.53
2022-10-01T22:40:35.529Z,11.42
2022-10-01T22:43:09.444Z,11.33
2022-10-01T22:46:02.679Z,11.25
2022-10-01T22:48:44.600Z,11.21
2022-10-01T22:51:29.606Z,11.16
2022-10-01T22:54:24.239Z,11.08
2022-10-01T22:57:04.933Z,11.01
2022-10-01T22:59:51.920Z,10.92
2022-10-01T23:02:28.668Z,10.89
2022-10-01T23:05:14.008Z,10.88
2022-10-01T23:07:49.598Z,11.00
2022-10-01T23:10:40.728Z,11.11
2022-10-01T23:13:23.984Z,11.19
2022-10-01T23:16:18.495Z,11.21
2022-10-01T23:19:25.474Z,11.17
2022-10-01T23:22:07.004Z,11.10
2022-10-01T23:25:00.935Z,11.12
2022-10-01T23:27:31.710Z,11.11
2022-10-01T23:30:14.107Z,10.97
2022-10-01T23:33:01.188Z,11.11
2022-10-01T23:36:00.081Z,11.08
2022-10-01T23:38:32.640Z,11.01
2022-10-01T23:41:08.758Z,11.00
2022-10-01T23:43:43.964Z,10.97
2022-10-01T23:46:26.971Z,10.97
2022-10-01T23:48:59.808Z,10.97
2022-10-01T23:51:47.852Z,11.00
2022-10-01T23:54:27.159Z,11.07
2022-10-01T23:57:21.684Z,11.18
